Time;durP1;ratioP1;P1;durP2;ratioP2;P2;SDS_P1;SDS_P2;PMS_P1;PMS_P2;Temp;Humidity;BMP_temperature;BMP_pressure;BME280_temperature;BME280_humidity;BME280_pressure;Samples;Min_cycle;Max_cycle;Signal;HPM_P1;HPM_P2
2023/03/01 07:13:15;;;;;;;;;3.75;3.75;;;;;17.18;38.67;102149.72;5013182;27;45474;-81
2023/03/01 07:15:41;;;;;;;;;4.50;4.50;;;;;17.75;39.32;102148.06;4983343;28;45340;-81
2023/03/01 07:18:06;;;;;;;;;3.00;3.00;;;;;18.56;39.84;102157.28;4982982;28;45505;-79
2023/03/01 07:20:31;;;;;;;;;2.50;2.50;;;;;19.47;39.49;102162.94;4987627;28;45657;-78
2023/03/01 07:22:58;;;;;;;;;5.50;3.00;;;;;20.35;39.53;102154.13;4981820;28;45425;-78
2023/03/01 07:25:24;;;;;;;;;8.00;5.75;;;;;21.19;39.37;102156.84;4976388;28;45429;-83
2023/03/01 07:27:51;;;;;;;;;6.25;6.25;;;;;21.90;38.58;102148.75;4981468;28;45432;-79
2023/03/01 07:30:17;;;;;;;;;7.50;6.00;;;;;22.49;38.28;102149.38;4979998;27;45799;-81
2023/03/01 07:32:42;;;;;;;;;7.00;5.50;;;;;22.95;37.83;102152.78;4987830;28;45466;-83
2023/03/01 07:35:08;;;;;;;;;6.50;6.25;;;;;23.40;37.23;102146.28;4979996;27;45596;-78
2023/03/01 07:37:33;;;;;;;;;7.75;6.50;;;;;23.78;37.27;102159.28;4981405;28;45636;-82
2023/03/01 07:39:58;;;;;;;;;5.25;4.75;;;;;24.16;36.82;102154.19;4980139;27;45581;-75
2023/03/01 07:42:24;;;;;;;;;4.00;2.75;;;;;24.44;36.61;102157.94;4987077;28;45489;-74
2023/03/01 07:44:49;;;;;;;;;5.25;5.00;;;;;24.77;36.19;102159.56;4988361;28;45363;-77
2023/03/01 07:47:15;;;;;;;;;4.75;4.75;;;;;25.04;36.15;102155.25;4989313;27;45463;-77
2023/03/01 07:49:40;;;;;;;;;7.33;7.33;;;;;25.27;35.28;102156.66;4987237;28;45581;-77
2023/03/01 07:52:05;;;;;;;;;5.00;5.00;;;;;25.48;35.48;102162.91;5022982;27;45455;-76
2023/03/01 07:54:31;;;;;;;;;6.00;5.00;;;;;25.64;35.41;102163.19;4985298;27;45507;-78
2023/03/01 07:56:57;;;;;;;;;6.00;5.67;;;;;25.82;35.01;102164.28;5002913;27;45478;-78
2023/03/01 07:59:28;;;;;;;;;5.33;4.33;;;;;25.94;34.74;102162.22;4985061;27;45422;-77
2023/03/01 08:01:54;;;;;;;;;4.33;4.00;;;;;26.04;34.37;102166.56;4984728;28;46504;-75
2023/03/01 08:04:19;;;;;;;;;7.67;6.00;;;;;26.13;34.55;102161.25;4998687;27;45462;-76
2023/03/01 08:06:44;;;;;;;;;6.00;5.00;;;;;26.20;34.06;102150.59;4996351;27;45458;-79
2023/03/01 08:09:10;;;;;;;;;8.33;6.00;;;;;26.27;33.66;102143.56;4978815;27;45529;-77
2023/03/01 08:11:35;;;;;;;;;4.33;4.00;;;;;26.41;33.78;102145.75;4968201;28;48109;-76
2023/03/01 08:14:00;;;;;;;;;4.00;4.00;;;;;26.53;33.84;102143.66;4977576;27;45451;-75
2023/03/01 08:16:25;;;;;;;;;8.00;5.33;;;;;26.63;33.94;102146.31;4967557;28;45361;-76
2023/03/01 08:18:51;;;;;;;;;7.33;7.33;;;;;26.73;33.44;102137.22;4969411;27;45490;-76
2023/03/01 08:21:20;;;;;;;;;3.67;3.67;;;;;26.83;33.37;102140.69;4969124;27;46111;-77
2023/03/01 08:23:45;;;;;;;;;4.00;4.00;;;;;26.92;33.39;102149.78;4968839;28;45655;-77
2023/03/01 08:26:19;;;;;;;;;5.00;5.00;;;;;27.01;33.23;102139.88;4971100;28;45710;-78
2023/03/01 08:28:45;;;;;;;;;4.00;4.00;;;;;27.11;33.15;102143.34;4955340;28;45825;-76
2023/03/01 08:31:16;;;;;;;;;4.00;3.33;;;;;27.19;33.08;102146.13;4969443;28;46151;-77
2023/03/01 08:33:42;;;;;;;;;7.00;5.00;;;;;27.28;32.97;102149.75;4961860;28;47314;-79
2023/03/01 08:36:07;;;;;;;;;5.33;5.33;;;;;27.34;32.33;102143.66;4971995;28;45389;-79
2023/03/01 08:38:34;;;;;;;;;5.67;5.67;;;;;27.42;32.43;102136.56;4972875;28;45357;-81
2023/03/01 08:41:01;;;;;;;;;10.33;8.67;;;;;27.44;32.20;102139.97;4970392;28;47147;-76
2023/03/01 08:43:26;;;;;;;;;9.00;8.67;;;;;27.44;32.68;102148.16;4969175;28;45601;-77
2023/03/01 08:45:52;;;;;;;;;6.33;6.33;;;;;27.43;32.01;102135.53;4973797;28;45351;-76
2023/03/01 08:48:17;;;;;;;;;8.67;8.00;;;;;27.38;32.34;102129.72;4968813;28;45459;-76
2023/03/01 08:50:42;;;;;;;;;9.67;7.00;;;;;27.33;31.59;102127.47;4972911;28;46190;-76
2023/03/01 08:53:07;;;;;;;;;7.33;7.33;;;;;27.34;32.16;102131.91;4972058;28;45404;-83
2023/03/01 08:55:33;;;;;;;;;9.00;9.00;;;;;27.32;31.52;102137.53;4971304;28;46876;-84
2023/03/01 08:57:59;;;;;;;;;10.33;7.33;;;;;27.31;31.71;102135.81;4973665;28;45449;-83
2023/03/01 09:00:24;;;;;;;;;9.33;8.33;;;;;27.29;31.87;102126.94;4976641;28;45457;-83
2023/03/01 09:02:50;;;;;;;;;10.33;8.00;;;;;27.29;31.24;102123.34;4985719;28;45641;-83
2023/03/01 09:05:15;;;;;;;;;8.33;8.33;;;;;27.27;31.39;102119.94;4957338;28;45495;-83
2023/03/01 09:07:40;;;;;;;;;9.33;7.00;;;;;27.24;31.16;102115.66;4970539;28;45582;-80
2023/03/01 09:10:06;;;;;;;;;20.67;13.67;;;;;27.21;30.87;102110.50;4971864;28;46590;-84
2023/03/01 09:12:32;;;;;;;;;20.67;14.00;;;;;27.16;30.63;102110.16;4969385;28;45924;-80
2023/03/01 09:14:57;;;;;;;;;9.67;9.00;;;;;27.09;30.82;102113.53;4972446;28;45433;-79
2023/03/01 09:17:22;;;;;;;;;9.00;7.00;;;;;27.02;31.02;102097.97;4973117;28;45516;-81
2023/03/01 09:19:48;;;;;;;;;9.67;8.33;;;;;26.98;30.82;102100.16;4969182;28;47016;-76
2023/03/01 09:22:13;;;;;;;;;9.00;9.00;;;;;26.93;31.18;102097.03;4969709;28;45392;-75
2023/03/01 09:24:40;;;;;;;;;8.00;7.33;;;;;26.88;30.60;102091.19;4971787;28;45503;-75
2023/03/01 09:27:08;;;;;;;;;7.67;7.67;;;;;26.87;30.64;102090.34;4966365;28;45464;-76
2023/03/01 09:29:35;;;;;;;;;10.00;9.33;;;;;26.85;30.72;102081.47;4952914;28;45482;-78
2023/03/01 09:32:00;;;;;;;;;9.67;8.33;;;;;26.86;30.53;102079.59;4967723;28;45454;-78
2023/03/01 09:34:26;;;;;;;;;7.00;7.00;;;;;26.88;31.12;102069.38;4969344;28;45595;-78
2023/03/01 09:36:51;;;;;;;;;8.67;7.33;;;;;26.89;30.75;102073.84;4972399;28;45496;-78
2023/03/01 09:39:17;;;;;;;;;6.67;6.00;;;;;26.90;30.32;102065.53;4967884;28;46046;-78
2023/03/01 09:42:01;;;;;;;;;10.00;7.33;;;;;26.92;30.25;102060.75;4961621;28;45472;-79
2023/03/01 09:44:47;;;;;;;;;9.33;8.33;;;;;26.96;30.44;102064.03;4969689;28;45575;-76
2023/03/01 09:47:23;;;;;;;;;10.33;8.00;;;;;26.99;30.58;102069.19;4961135;28;45569;-74
2023/03/01 09:50:16;;;;;;;;;8.67;8.33;;;;;27.06;30.12;102067.50;4953367;28;45451;-76
2023/03/01 09:52:45;;;;;;;;;8.67;8.67;;;;;27.16;30.34;102053.78;4965369;28;45396;-75
2023/03/01 09:55:20;;;;;;;;;10.33;8.00;;;;;27.26;29.97;102055.53;4960632;28;45470;-76
2023/03/01 09:58:22;;;;;;;;;11.00;8.00;;;;;27.36;30.18;102053.53;4951530;28;45963;-76
2023/03/01 10:00:49;;;;;;;;;11.67;11.00;;;;;27.46;29.93;102059.72;4959715;28;46488;-76
2023/03/01 10:03:28;;;;;;;;;6.33;6.33;;;;;27.53;30.48;102050.88;4962558;28;45510;-76
2023/03/01 10:06:14;;;;;;;;;6.00;6.00;;;;;27.59;30.03;102047.50;4968280;28;45698;-76
2023/03/01 10:08:53;;;;;;;;;6.33;5.67;;;;;27.67;29.82;102047.56;4955683;28;45455;-76
2023/03/01 10:11:22;;;;;;;;;8.67;8.67;;;;;27.71;29.94;102046.22;4968202;28;46303;-76
2023/03/01 10:13:56;;;;;;;;;8.67;8.67;;;;;27.76;30.46;102040.28;4969882;28;45394;-76
2023/03/01 10:16:40;;;;;;;;;7.67;7.00;;;;;27.81;29.96;102046.06;4972572;28;45395;-75
2023/03/01 10:19:10;;;;;;;;;7.67;7.00;;;;;27.83;30.14;102046.75;4958082;28;45531;-74
2023/03/01 10:21:42;;;;;;;;;5.67;5.00;;;;;27.87;30.40;102037.22;4951032;28;47412;-74
2023/03/01 10:24:13;;;;;;;;;7.00;7.00;;;;;27.91;30.26;102040.47;4965824;28;45432;-74
2023/03/01 10:27:12;;;;;;;;;8.33;7.00;;;;;27.94;29.70;102042.00;4974864;28;45442;-75
2023/03/01 10:30:00;;;;;;;;;7.67;6.00;;;;;27.98;30.17;102032.47;4966429;28;45474;-75
2023/03/01 10:32:26;;;;;;;;;6.00;6.00;;;;;28.04;30.32;102036.41;5011404;28;45518;-76
2023/03/01 10:34:51;;;;;;;;;7.67;6.33;;;;;28.05;30.19;102027.19;5018433;28;45585;-77
2023/03/01 10:37:21;;;;;;;;;7.33;7.00;;;;;28.11;30.47;102024.63;5031607;28;45432;-76
2023/03/01 10:40:01;;;;;;;;;8.00;6.00;;;;;28.22;29.67;102034.38;5032527;28;45317;-76
2023/03/01 10:42:39;;;;;;;;;5.33;5.00;;;;;28.27;29.76;102026.56;5024321;28;45636;-76
2023/03/01 10:45:15;;;;;;;;;5.33;5.33;;;;;28.35;29.47;102038.50;4992439;28;45579;-76
2023/03/01 10:47:40;;;;;;;;;8.00;5.67;;;;;28.39;29.57;102032.53;4991890;28;45455;-77
2023/03/01 10:50:23;;;;;;;;;5.00;5.00;;;;;28.45;29.91;102024.69;4992229;28;45367;-77
2023/03/01 10:52:58;;;;;;;;;7.67;7.67;;;;;28.51;30.05;102029.44;4992020;28;45470;-78
2023/03/01 10:55:31;;;;;;;;;5.33;5.33;;;;;28.56;29.60;102020.75;4991976;28;45373;-75
2023/03/01 10:58:20;;;;;;;;;6.33;6.33;;;;;28.57;29.38;102019.72;4975696;28;45549;-74
2023/03/01 11:00:52;;;;;;;;;9.33;6.67;;;;;28.58;30.01;102027.75;5004560;28;45806;-76
2023/03/01 11:03:21;;;;;;;;;7.33;7.00;;;;;28.61;30.12;102021.09;4998354;28;46062;-74
2023/03/01 11:06:10;;;;;;;;;6.67;4.67;;;;;28.64;29.83;102024.31;4998907;28;45460;-74
2023/03/01 11:08:44;;;;;;;;;7.00;5.67;;;;;28.67;29.97;102021.25;4983134;28;45496;-80
2023/03/01 11:11:25;;;;;;;;;7.00;7.00;;;;;28.70;29.51;102016.47;4986078;28;45418;-80
2023/03/01 11:14:16;;;;;;;;;5.00;4.67;;;;;28.70;29.55;102013.72;4971316;28;46291;-80
2023/03/01 11:16:45;;;;;;;;;6.00;5.00;;;;;28.66;29.34;102003.13;4952064;28;45390;-80
2023/03/01 11:19:10;;;;;;;;;8.33;6.33;;;;;28.67;29.81;102014.94;4956590;28;45363;-80
2023/03/01 11:21:40;;;;;;;;;8.67;8.00;;;;;28.63;29.57;102000.78;4969169;28;45659;-80
2023/03/01 11:24:11;;;;;;;;;7.67;5.67;;;;;28.62;29.80;101993.63;4957598;28;45963;-80
2023/03/01 11:26:41;;;;;;;;;8.00;6.00;;;;;28.59;29.52;101993.94;4970718;28;45391;-80
2023/03/01 11:29:17;;;;;;;;;5.00;3.33;;;;;28.57;29.58;101998.72;4967507;28;45424;-81
2023/03/01 11:31:44;;;;;;;;;4.00;4.00;;;;;28.57;28.98;101995.16;4967123;28;45617;-80
2023/03/01 11:34:20;;;;;;;;;4.67;4.67;;;;;28.54;28.95;101983.53;4967631;28;46311;-80
2023/03/01 11:37:01;;;;;;;;;6.67;5.33;;;;;28.53;29.47;101981.84;4967845;28;45331;-80
2023/03/01 11:39:26;;;;;;;;;6.00;6.00;;;;;28.53;29.39;101986.47;4968142;28;45409;-80
2023/03/01 11:42:18;;;;;;;;;5.33;5.33;;;;;28.49;28.89;101974.16;4959979;28;45711;-80
2023/03/01 11:44:47;;;;;;;;;6.00;6.00;;;;;28.50;29.72;101973.13;4968697;27;45433;-80
2023/03/01 11:47:47;;;;;;;;;7.00;6.67;;;;;28.48;29.05;101981.50;4951531;28;45478;-80
2023/03/01 11:50:25;;;;;;;;;6.00;4.67;;;;;28.45;28.62;101990.06;4965948;28;45418;-80
2023/03/01 11:53:21;;;;;;;;;6.00;5.67;;;;;28.39;28.73;101971.59;4971175;28;45427;-80
2023/03/01 11:56:11;;;;;;;;;4.67;4.67;;;;;28.39;29.34;101972.47;4963657;28;45655;-80
2023/03/01 11:58:49;;;;;;;;;5.33;5.33;;;;;28.36;28.67;101975.53;4956616;28;45601;-80
2023/03/01 12:01:42;;;;;;;;;5.00;5.00;;;;;28.31;28.82;101969.75;5004219;28;45452;-80
2023/03/01 12:04:36;;;;;;;;;5.00;5.00;;;;;28.31;28.55;101967.00;4961017;28;45277;-79
2023/03/01 12:07:01;;;;;;;;;5.67;5.67;;;;;28.30;28.83;101975.38;4965987;28;46107;-79
2023/03/01 12:09:32;;;;;;;;;8.00;5.33;;;;;28.29;28.65;101966.34;5032779;28;45405;-79
2023/03/01 12:12:03;;;;;;;;;5.00;5.00;;;;;28.29;28.49;101971.81;4962343;28;45712;-76
2023/03/01 12:14:54;;;;;;;;;7.67;6.33;;;;;28.30;28.77;101953.53;4975507;28;45521;-75
2023/03/01 12:17:36;;;;;;;;;7.00;5.33;;;;;28.31;28.80;101961.56;4974313;28;46196;-76
2023/03/01 12:20:30;;;;;;;;;5.00;5.00;;;;;28.33;29.00;101951.34;4991694;28;45398;-78
2023/03/01 12:23:23;;;;;;;;;4.67;4.67;;;;;28.38;28.53;101953.53;4973794;28;45442;-78
2023/03/01 12:26:06;;;;;;;;;4.33;4.33;;;;;28.38;29.02;101946.19;4970882;28;45614;-78
2023/03/01 12:28:46;;;;;;;;;6.00;4.33;;;;;28.39;28.39;101950.63;4965750;28;45420;-77
2023/03/01 12:31:49;;;;;;;;;5.67;5.67;;;;;28.38;28.40;101939.88;4972184;28;45473;-77
2023/03/01 12:34:33;;;;;;;;;5.33;5.33;;;;;28.39;28.37;101942.44;4954045;28;45478;-77
2023/03/01 12:37:21;;;;;;;;;5.00;4.33;;;;;28.38;28.35;101939.88;4954276;28;45423;-74
2023/03/01 12:40:17;;;;;;;;;5.67;5.33;;;;;28.36;28.87;101929.13;4969385;28;47111;-74
2023/03/01 12:43:07;;;;;;;;;5.67;5.67;;;;;28.33;28.30;101915.84;4960961;28;45565;-74
2023/03/01 12:45:56;;;;;;;;;5.33;5.33;;;;;28.36;28.81;101920.09;4973722;28;45433;-74
2023/03/01 12:48:33;;;;;;;;;5.67;5.67;;;;;28.38;28.48;101915.31;4973103;28;45434;-74
2023/03/01 12:51:03;;;;;;;;;6.00;5.67;;;;;28.39;28.59;101892.44;4973433;28;45519;-74
2023/03/01 12:53:32;;;;;;;;;7.00;5.33;;;;;28.42;28.39;101897.56;4980773;28;45326;-77
2023/03/01 12:56:04;;;;;;;;;7.00;5.00;;;;;28.42;28.54;101878.44;4972742;28;45459;-79
2023/03/01 12:58:32;;;;;;;;;4.00;4.00;;;;;28.46;29.03;101882.53;4972261;28;45595;-78
2023/03/01 13:01:21;;;;;;;;;6.00;6.00;;;;;28.48;28.63;101880.47;4968665;28;45556;-78
2023/03/01 13:04:01;;;;;;;;;7.00;6.00;;;;;28.50;28.46;101870.25;4953695;28;45520;-74
2023/03/01 13:06:40;;;;;;;;;6.00;6.00;;;;;28.51;29.28;101852.81;4972119;28;45426;-74
2023/03/01 13:09:36;;;;;;;;;5.00;5.00;;;;;28.54;29.13;101860.63;4993117;28;45525;-74
2023/03/01 13:12:01;;;;;;;;;4.67;4.67;;;;;28.54;29.25;101855.19;4985646;28;45445;-74
2023/03/01 13:14:32;;;;;;;;;5.67;5.67;;;;;28.55;29.10;101853.31;4958417;28;45453;-74
2023/03/01 13:16:58;;;;;;;;;5.00;5.00;;;;;28.53;28.74;101833.53;4954411;28;45415;-74
2023/03/01 13:19:29;;;;;;;;;9.00;5.00;;;;;28.61;28.59;101838.09;5012969;27;45517;-74
2023/03/01 13:21:55;;;;;;;;;6.33;5.00;;;;;28.63;28.89;101839.63;4965230;28;45423;-82
2023/03/01 13:24:40;;;;;;;;;5.67;5.00;;;;;28.67;28.54;101841.00;4958211;28;45494;-80
2023/03/01 13:27:05;;;;;;;;;7.67;5.00;;;;;28.70;29.15;101834.31;4959825;28;45520;-79
2023/03/01 13:29:51;;;;;;;;;5.67;5.00;;;;;28.76;28.74;101836.34;4959874;28;45355;-81
2023/03/01 13:32:23;;;;;;;;;6.33;6.33;;;;;28.80;28.81;101825.88;4957816;28;46105;-80
2023/03/01 13:34:58;;;;;;;;;5.67;5.67;;;;;28.85;29.05;101828.94;4973000;28;45519;-81
2023/03/01 13:37:26;;;;;;;;;6.67;4.00;;;;;28.88;28.97;101808.59;4989987;28;45346;-81
2023/03/01 13:39:52;;;;;;;;;5.00;5.00;;;;;28.90;28.62;101810.16;4992711;28;45423;-82
2023/03/01 13:42:30;;;;;;;;;5.33;5.33;;;;;28.96;29.05;101813.19;4987019;28;45905;-80
2023/03/01 13:44:55;;;;;;;;;4.67;4.67;;;;;28.97;28.74;101807.56;4971568;28;45646;-81
2023/03/01 13:47:20;;;;;;;;;5.00;5.00;;;;;28.97;28.39;101796.63;4986694;28;45348;-80
2023/03/01 13:49:51;;;;;;;;;7.33;5.00;;;;;28.98;28.36;101802.94;5016511;27;45483;-79
2023/03/01 13:52:37;;;;;;;;;8.33;8.00;;;;;28.96;29.21;101800.41;4988020;28;45417;-79
2023/03/01 13:55:17;;;;;;;;;8.00;7.33;;;;;28.86;28.88;101792.41;4978843;27;45498;-92
2023/03/01 13:57:47;;;;;;;;;8.33;6.33;;;;;28.78;28.72;101784.25;4974744;28;45532;-80
2023/03/01 14:00:34;;;;;;;;;6.33;6.00;;;;;28.63;27.83;101774.09;4952688;28;45615;-80
2023/03/01 14:03:09;;;;;;;;;6.67;6.67;;;;;28.53;28.49;101776.19;4978388;28;45430;-78
2023/03/01 14:05:35;;;;;;;;;8.00;8.00;;;;;28.39;28.37;101764.97;4985244;28;45690;-79
2023/03/01 14:08:02;;;;;;;;;11.00;8.00;;;;;28.34;28.55;101761.06;4982728;28;45376;-77
2023/03/01 14:10:37;;;;;;;;;6.33;6.00;;;;;28.32;28.64;101779.50;5022983;28;45506;-77
2023/03/01 14:13:36;;;;;;;;;9.33;6.33;;;;;28.31;28.27;101770.47;4992585;27;45988;-75
2023/03/01 14:16:28;;;;;;;;;9.67;8.33;;;;;28.31;28.44;101765.00;4962168;28;45471;-77
2023/03/01 14:19:02;;;;;;;;;8.00;7.33;;;;;28.35;28.60;101769.09;4928697;28;45501;-75
2023/03/01 14:21:29;;;;;;;;;10.33;8.00;;;;;28.37;28.29;101766.19;4928956;28;45596;-76
2023/03/01 14:23:54;;;;;;;;;10.67;5.33;;;;;28.39;28.21;101761.38;4929504;28;45528;-77
2023/03/01 14:26:22;;;;;;;;;6.00;6.00;;;;;28.36;28.26;101751.66;4929347;28;45756;-76
2023/03/01 14:28:48;;;;;;;;;7.00;7.00;;;;;28.39;28.14;101734.94;4916483;28;45543;-77
2023/03/01 14:31:35;;;;;;;;;6.67;6.00;;;;;28.42;28.46;101739.19;4928816;28;45575;-76
2023/03/01 14:34:01;;;;;;;;;8.67;8.33;;;;;28.44;28.16;101741.75;4928501;28;46333;-78
2023/03/01 14:36:29;;;;;;;;;5.00;5.00;;;;;28.43;28.56;101735.44;4927405;28;45511;-77
2023/03/01 14:38:54;;;;;;;;;7.00;7.00;;;;;28.44;28.17;101734.41;4931812;28;45755;-77
2023/03/01 14:41:26;;;;;;;;;7.00;5.33;;;;;28.47;28.06;101725.00;4927114;28;45471;-77
2023/03/01 14:44:01;;;;;;;;;7.67;6.33;;;;;28.47;28.58;101731.31;4915100;28;45423;-74
2023/03/01 14:46:36;;;;;;;;;5.00;5.00;;;;;28.49;28.37;101736.59;4914245;28;45558;-77
2023/03/01 14:49:09;;;;;;;;;8.33;7.00;;;;;28.47;28.58;101725.00;4911710;28;45494;-76
2023/03/01 14:51:39;;;;;;;;;5.00;5.00;;;;;28.46;28.04;101724.16;4911868;28;45483;-76
2023/03/01 14:54:20;;;;;;;;;7.00;7.00;;;;;28.43;28.07;101715.47;4925086;28;45484;-77
2023/03/01 14:56:47;;;;;;;;;7.00;6.33;;;;;28.40;28.35;101719.41;4972438;27;45452;-76
2023/03/01 14:59:13;;;;;;;;;7.00;7.00;;;;;28.40;28.68;101730.31;4968266;28;45326;-77
2023/03/01 15:01:41;;;;;;;;;7.33;6.67;;;;;28.40;28.15;101720.25;4966858;28;45460;-76
2023/03/01 15:04:11;;;;;;;;;7.00;7.00;;;;;28.43;28.81;101718.19;4966397;28;47552;-76
2023/03/01 15:06:37;;;;;;;;;8.33;7.67;;;;;28.45;28.67;101713.41;4966537;28;45712;-77
2023/03/01 15:09:04;;;;;;;;;9.33;6.00;;;;;28.47;28.31;101714.06;4970807;28;45395;-76
2023/03/01 15:11:31;;;;;;;;;10.00;8.00;;;;;28.45;28.89;101699.75;4970719;28;45351;-76
2023/03/01 15:13:58;;;;;;;;;7.67;7.67;;;;;28.49;28.11;101703.84;4979997;28;45452;-76
2023/03/01 15:16:27;;;;;;;;;7.33;7.33;;;;;28.50;29.00;101706.41;4971344;28;45362;-75
2023/03/01 15:18:59;;;;;;;;;11.00;8.00;;;;;28.53;28.94;101700.56;4967844;28;45807;-74
2023/03/01 15:21:28;;;;;;;;;9.33;6.67;;;;;28.53;28.10;101697.00;4971415;28;45393;-76
2023/03/01 15:23:55;;;;;;;;;6.67;6.67;;;;;28.53;28.87;101700.56;4966252;28;48331;-78
2023/03/01 15:26:27;;;;;;;;;7.00;6.67;;;;;28.52;28.09;101706.19;4985854;27;45397;-76
2023/03/01 15:28:57;;;;;;;;;4.67;4.67;;;;;28.51;28.67;101708.09;4964366;28;46258;-78
2023/03/01 15:31:26;;;;;;;;;6.67;6.33;;;;;28.49;28.69;101704.69;4951711;28;45454;-76
2023/03/01 15:33:52;;;;;;;;;5.33;5.00;;;;;28.48;28.20;101711.16;4952932;28;45430;-79
2023/03/01 15:36:45;;;;;;;;;8.00;8.00;;;;;28.45;28.26;101707.97;4955023;28;45412;-80
2023/03/01 15:39:38;;;;;;;;;7.00;6.00;;;;;28.39;28.77;101702.19;4971446;28;45332;-78
2023/03/01 15:42:33;;;;;;;;;7.33;5.00;;;;;28.34;28.74;101699.13;4973599;28;45411;-80
2023/03/01 15:45:09;;;;;;;;;5.00;5.00;;;;;28.27;28.23;101692.69;4955945;28;45984;-80
2023/03/01 15:47:38;;;;;;;;;6.67;6.67;;;;;28.23;28.17;101691.28;4954830;28;47039;-79
2023/03/01 15:50:04;;;;;;;;;8.00;6.00;;;;;28.18;28.08;101680.94;4973524;28;45589;-79
2023/03/01 15:52:41;;;;;;;;;5.00;5.00;;;;;28.14;28.89;101685.03;4969258;28;45554;-76
2023/03/01 15:55:16;;;;;;;;;7.67;5.00;;;;;28.09;28.71;101676.53;4956871;28;46366;-76
2023/03/01 15:57:41;;;;;;;;;8.00;5.67;;;;;28.07;28.90;101676.69;4970173;28;45492;-76
2023/03/01 16:00:13;;;;;;;;;11.00;9.00;;;;;28.04;28.23;101685.25;4973844;28;48964;-76
2023/03/01 16:02:40;;;;;;;;;11.33;10.33;;;;;28.01;27.98;101682.88;4967583;28;45504;-79
2023/03/01 16:05:14;;;;;;;;;8.33;8.00;;;;;27.95;28.27;101680.88;4958322;28;45466;-79
2023/03/01 16:07:40;;;;;;;;;12.00;9.00;;;;;27.93;28.75;101677.44;4963969;28;45490;-80
2023/03/01 16:10:05;;;;;;;;;9.00;7.67;;;;;27.95;28.10;101683.59;4955476;28;45484;-78
2023/03/01 16:12:30;;;;;;;;;8.67;6.67;;;;;27.97;28.55;101684.25;4969451;28;45545;-77
2023/03/01 16:14:57;;;;;;;;;8.00;7.33;;;;;27.99;28.23;101687.63;4958310;28;50991;-79
2023/03/01 16:17:22;;;;;;;;;10.67;8.00;;;;;28.02;28.61;101690.03;4974015;28;45468;-78
2023/03/01 16:19:48;;;;;;;;;8.67;7.00;;;;;28.04;28.48;101690.72;4954317;28;45656;-76
2023/03/01 16:22:13;;;;;;;;;8.67;7.67;;;;;28.04;28.53;101685.25;4956956;28;45417;-76
2023/03/01 16:24:40;;;;;;;;;10.33;7.33;;;;;28.06;28.03;101688.66;4964010;28;45389;-76
2023/03/01 16:27:05;;;;;;;;;9.00;8.67;;;;;28.10;28.19;101683.69;4958700;28;45408;-75
2023/03/01 16:29:31;;;;;;;;;6.33;6.33;;;;;28.12;28.02;101684.38;4956790;28;45372;-76
2023/03/01 16:31:56;;;;;;;;;9.33;7.33;;;;;28.14;28.01;101685.91;4967946;28;45665;-75
2023/03/01 16:34:23;;;;;;;;;10.33;8.00;;;;;28.18;28.25;101686.38;4973551;28;45516;-75
2023/03/01 16:36:48;;;;;;;;;6.00;6.00;;;;;28.19;27.95;101676.34;4972605;28;45409;-74
2023/03/01 16:39:14;;;;;;;;;7.67;6.67;;;;;28.22;28.71;101679.56;4968453;28;45553;-77
2023/03/01 16:41:39;;;;;;;;;7.67;6.33;;;;;28.25;28.26;101681.94;4972042;28;45549;-76
2023/03/01 16:44:04;;;;;;;;;11.00;9.33;;;;;28.26;28.69;101683.66;4972879;28;52254;-76
2023/03/01 16:46:30;;;;;;;;;8.00;6.67;;;;;28.28;28.19;101684.31;4971802;28;45683;-77
2023/03/01 16:48:56;;;;;;;;;8.67;6.00;;;;;28.31;28.17;101683.09;4973500;28;45511;-77
2023/03/01 16:51:22;;;;;;;;;9.33;6.00;;;;;28.32;28.76;101678.50;4967518;28;45533;-77
2023/03/01 16:53:48;;;;;;;;;8.67;7.00;;;;;28.31;28.18;101690.47;4953783;28;46406;-76
2023/03/01 16:56:14;;;;;;;;;6.67;5.67;;;;;28.31;28.03;101685.84;4956992;28;45474;-77
2023/03/01 16:58:40;;;;;;;;;6.00;6.00;;;;;28.31;28.04;101690.47;4973136;28;45325;-76
2023/03/01 17:01:15;;;;;;;;;6.00;6.00;;;;;28.30;28.65;101695.06;4970090;28;45722;-76
2023/03/01 17:03:41;;;;;;;;;7.67;7.67;;;;;28.31;28.14;101701.38;4954573;28;46163;-77
2023/03/01 17:06:13;;;;;;;;;8.00;7.00;;;;;28.30;28.34;101707.84;4993957;28;45439;-77
2023/03/01 17:08:39;;;;;;;;;6.00;6.00;;;;;28.28;28.44;101692.50;4963161;28;45743;-77
2023/03/01 17:11:09;;;;;;;;;7.00;7.00;;;;;28.28;28.29;101691.66;4959997;28;45308;-76
2023/03/01 17:13:36;;;;;;;;;6.00;6.00;;;;;28.28;28.46;101699.84;4962431;28;46320;-75
2023/03/01 17:16:11;;;;;;;;;6.67;5.33;;;;;28.28;28.41;101697.09;4967620;28;45570;-75
2023/03/01 17:18:37;;;;;;;;;7.00;6.67;;;;;28.28;28.21;101694.38;4956693;28;45511;-76
2023/03/01 17:21:03;;;;;;;;;8.00;6.00;;;;;28.27;28.26;101695.41;4972203;28;45368;-76
2023/03/01 17:23:30;;;;;;;;;7.00;5.33;;;;;28.28;28.36;101697.09;4972662;28;45932;-75
2023/03/01 17:25:56;;;;;;;;;7.00;6.67;;;;;28.29;28.12;101701.56;4963794;28;47127;-76
2023/03/01 17:28:23;;;;;;;;;7.00;4.00;;;;;28.27;28.44;101703.59;4971634;28;45504;-76
2023/03/01 17:30:49;;;;;;;;;7.33;6.00;;;;;28.30;28.45;101705.13;4971463;28;45367;-75
